sensor_id;sensor_type;location;lat;lon;timestamp;pressure;altitude;pressure_sealevel;temperature;humidity
70248;BME280;57641;51.416;5.506;2024-03-29T00:01:16;99221.84;;;13.91;44.41
70248;BME280;57641;51.416;5.506;2024-03-29T00:03:41;99223.88;;;13.58;44.35
70248;BME280;57641;51.416;5.506;2024-03-29T00:06:08;99230.97;;;13.32;45.63
70248;BME280;57641;51.416;5.506;2024-03-29T00:08:33;99221.84;;;13.46;45.39
70248;BME280;57641;51.416;5.506;2024-03-29T00:10:59;99213.94;;;13.65;44.88
70248;BME280;57641;51.416;5.506;2024-03-29T00:13:24;99224.97;;;13.37;44.76
70248;BME280;57641;51.416;5.506;2024-03-29T00:15:49;99230.34;;;13.24;45.85
70248;BME280;57641;51.416;5.506;2024-03-29T00:18:15;99229.91;;;13.40;45.63
70248;BME280;57641;51.416;5.506;2024-03-29T00:20:40;99242.25;;;13.47;44.91
70248;BME280;57641;51.416;5.506;2024-03-29T00:23:06;99246.06;;;13.65;44.56
70248;BME280;57641;51.416;5.506;2024-03-29T00:25:32;99256.66;;;13.46;45.06
70248;BME280;57641;51.416;5.506;2024-03-29T00:27:57;99250.38;;;13.72;44.89
70248;BME280;57641;51.416;5.506;2024-03-29T00:30:22;99263.81;;;13.59;45.22
70248;BME280;57641;51.416;5.506;2024-03-29T00:32:48;99268.31;;;13.65;45.24
70248;BME280;57641;51.416;5.506;2024-03-29T00:35:13;99259.47;;;13.65;45.06
70248;BME280;57641;51.416;5.506;2024-03-29T00:37:39;99256.41;;;13.61;45.28
70248;BME280;57641;51.416;5.506;2024-03-29T00:40:06;99261.13;;;13.66;45.42
70248;BME280;57641;51.416;5.506;2024-03-29T00:42:31;99268.56;;;13.64;44.87
70248;BME280;57641;51.416;5.506;2024-03-29T00:44:57;99270.13;;;13.78;44.94
70248;BME280;57641;51.416;5.506;2024-03-29T00:47:22;99275.31;;;13.66;45.12
70248;BME280;57641;51.416;5.506;2024-03-29T00:49:47;99265.63;;;13.65;45.21
70248;BME280;57641;51.416;5.506;2024-03-29T00:52:13;99278.84;;;13.53;45.84
70248;BME280;57641;51.416;5.506;2024-03-29T00:54:38;99272.84;;;13.71;44.92
70248;BME280;57641;51.416;5.506;2024-03-29T00:57:04;99272.91;;;13.45;45.88
70248;BME280;57641;51.416;5.506;2024-03-29T00:59:31;99272.53;;;13.48;45.88
70248;BME280;57641;51.416;5.506;2024-03-29T01:01:56;99277.25;;;13.39;46.21
70248;BME280;57641;51.416;5.506;2024-03-29T01:04:22;99284.69;;;13.37;46.63
70248;BME280;57641;51.416;5.506;2024-03-29T01:06:47;99277.06;;;13.41;46.13
70248;BME280;57641;51.416;5.506;2024-03-29T01:09:13;99271.91;;;13.33;46.43
70248;BME280;57641;51.416;5.506;2024-03-29T01:11:38;99269.47;;;13.25;46.05
70248;BME280;57641;51.416;5.506;2024-03-29T01:14:05;99274.19;;;13.29;46.55
70248;BME280;57641;51.416;5.506;2024-03-29T01:16:31;99271.91;;;13.39;46.57
70248;BME280;57641;51.416;5.506;2024-03-29T01:18:57;99260.41;;;13.19;46.68
70248;BME280;57641;51.416;5.506;2024-03-29T01:21:23;99252.59;;;13.31;46.75
70248;BME280;57641;51.416;5.506;2024-03-29T01:23:49;99253.16;;;13.39;46.08
70248;BME280;57641;51.416;5.506;2024-03-29T01:26:15;99254.00;;;13.40;46.77
70248;BME280;57641;51.416;5.506;2024-03-29T01:28:45;99244.09;;;13.40;46.29
70248;BME280;57641;51.416;5.506;2024-03-29T01:31:11;99243.47;;;13.51;46.67
70248;BME280;57641;51.416;5.506;2024-03-29T01:33:37;99242.66;;;13.38;46.78
70248;BME280;57641;51.416;5.506;2024-03-29T01:36:04;99225.94;;;13.56;46.13
70248;BME280;57641;51.416;5.506;2024-03-29T01:38:30;99229.25;;;13.51;46.26
70248;BME280;57641;51.416;5.506;2024-03-29T01:40:56;99239.13;;;13.50;46.17
70248;BME280;57641;51.416;5.506;2024-03-29T01:43:22;99211.06;;;13.60;45.82
70248;BME280;57641;51.416;5.506;2024-03-29T01:45:49;99205.50;;;13.61;46.15
70248;BME280;57641;51.416;5.506;2024-03-29T01:48:17;99211.06;;;13.60;46.34
70248;BME280;57641;51.416;5.506;2024-03-29T01:50:44;99211.31;;;13.51;46.17
70248;BME280;57641;51.416;5.506;2024-03-29T01:53:10;99212.78;;;13.47;46.47
70248;BME280;57641;51.416;5.506;2024-03-29T01:55:37;99215.06;;;13.44;46.37
70248;BME280;57641;51.416;5.506;2024-03-29T01:58:03;99220.91;;;13.21;46.70
70248;BME280;57641;51.416;5.506;2024-03-29T02:00:30;99206.38;;;13.55;46.59
70248;BME280;57641;51.416;5.506;2024-03-29T02:02:57;99200.63;;;13.51;46.39
70248;BME280;57641;51.416;5.506;2024-03-29T02:05:22;99202.41;;;13.64;46.40
70248;BME280;57641;51.416;5.506;2024-03-29T02:07:48;99214.19;;;13.57;46.06
70248;BME280;57641;51.416;5.506;2024-03-29T02:10:14;99215.03;;;13.50;46.71
70248;BME280;57641;51.416;5.506;2024-03-29T02:12:40;99223.06;;;13.50;46.61
70248;BME280;57641;51.416;5.506;2024-03-29T02:15:06;99221.59;;;13.61;46.59
70248;BME280;57641;51.416;5.506;2024-03-29T02:17:32;99233.13;;;13.55;46.29
70248;BME280;57641;51.416;5.506;2024-03-29T02:19:58;99219.72;;;13.68;46.31
70248;BME280;57641;51.416;5.506;2024-03-29T02:22:24;99237.28;;;13.51;46.24
70248;BME280;57641;51.416;5.506;2024-03-29T02:24:52;99237.59;;;13.74;46.18
70248;BME280;57641;51.416;5.506;2024-03-29T02:27:17;99236.03;;;13.53;46.69
70248;BME280;57641;51.416;5.506;2024-03-29T02:29:43;99238.00;;;13.14;47.18
70248;BME280;57641;51.416;5.506;2024-03-29T02:32:08;99250.28;;;13.34;47.48
70248;BME280;57641;51.416;5.506;2024-03-29T02:34:33;99236.78;;;13.16;46.85
70248;BME280;57641;51.416;5.506;2024-03-29T02:36:59;99234.78;;;13.56;46.81
70248;BME280;57641;51.416;5.506;2024-03-29T02:39:25;99234.03;;;13.42;46.59
70248;BME280;57641;51.416;5.506;2024-03-29T02:41:50;99246.81;;;13.01;47.71
70248;BME280;57641;51.416;5.506;2024-03-29T02:44:16;99250.94;;;13.03;48.15
70248;BME280;57641;51.416;5.506;2024-03-29T02:46:42;99242.91;;;13.10;47.57
70248;BME280;57641;51.416;5.506;2024-03-29T02:49:08;99253.44;;;13.05;48.00
70248;BME280;57641;51.416;5.506;2024-03-29T02:51:35;99247.03;;;12.53;49.26
70248;BME280;57641;51.416;5.506;2024-03-29T02:54:00;99248.06;;;12.98;48.23
70248;BME280;57641;51.416;5.506;2024-03-29T02:56:26;99246.84;;;12.94;47.87
70248;BME280;57641;51.416;5.506;2024-03-29T02:58:52;99247.63;;;13.28;47.83
70248;BME280;57641;51.416;5.506;2024-03-29T03:01:17;99257.56;;;13.14;47.69
70248;BME280;57641;51.416;5.506;2024-03-29T03:03:43;99265.34;;;12.96;49.28
70248;BME280;57641;51.416;5.506;2024-03-29T03:06:08;99266.59;;;13.13;49.39
70248;BME280;57641;51.416;5.506;2024-03-29T03:08:34;99258.38;;;13.21;49.99
70248;BME280;57641;51.416;5.506;2024-03-29T03:11:18;99264.53;;;13.08;50.22
70248;BME280;57641;51.416;5.506;2024-03-29T03:13:43;99258.38;;;12.88;51.00
70248;BME280;57641;51.416;5.506;2024-03-29T03:16:09;99271.75;;;12.75;51.44
70248;BME280;57641;51.416;5.506;2024-03-29T03:18:34;99267.44;;;12.94;50.95
70248;BME280;57641;51.416;5.506;2024-03-29T03:21:00;99270.88;;;13.47;49.67
70248;BME280;57641;51.416;5.506;2024-03-29T03:23:26;99276.69;;;13.24;50.62
70248;BME280;57641;51.416;5.506;2024-03-29T03:25:58;99277.88;;;13.48;49.24
70248;BME280;57641;51.416;5.506;2024-03-29T03:28:24;99261.84;;;13.02;50.01
70248;BME280;57641;51.416;5.506;2024-03-29T03:30:50;99262.41;;;13.43;50.04
70248;BME280;57641;51.416;5.506;2024-03-29T03:33:16;99260.75;;;13.49;49.25
70248;BME280;57641;51.416;5.506;2024-03-29T03:35:43;99254.09;;;13.65;48.75
70248;BME280;57641;51.416;5.506;2024-03-29T03:38:09;99269.03;;;13.34;49.62
70248;BME280;57641;51.416;5.506;2024-03-29T03:40:35;99256.13;;;13.76;49.33
70248;BME280;57641;51.416;5.506;2024-03-29T03:43:05;99262.03;;;13.40;49.97
70248;BME280;57641;51.416;5.506;2024-03-29T03:45:40;99254.19;;;13.45;50.82
70248;BME280;57641;51.416;5.506;2024-03-29T03:48:08;99258.94;;;13.43;51.19
70248;BME280;57641;51.416;5.506;2024-03-29T03:50:35;99251.06;;;13.54;50.85
70248;BME280;57641;51.416;5.506;2024-03-29T03:53:01;99261.25;;;13.26;53.31
70248;BME280;57641;51.416;5.506;2024-03-29T03:55:26;99269.91;;;12.95;55.18
70248;BME280;57641;51.416;5.506;2024-03-29T03:57:55;99286.16;;;13.00;55.64
70248;BME280;57641;51.416;5.506;2024-03-29T04:00:21;99286.97;;;12.81;57.96
70248;BME280;57641;51.416;5.506;2024-03-29T04:02:50;99279.13;;;13.06;57.54
70248;BME280;57641;51.416;5.506;2024-03-29T04:05:17;99294.59;;;13.10;57.74
70248;BME280;57641;51.416;5.506;2024-03-29T04:07:43;99297.69;;;13.14;58.23
70248;BME280;57641;51.416;5.506;2024-03-29T04:10:09;99309.59;;;13.05;59.12
70248;BME280;57641;51.416;5.506;2024-03-29T04:12:35;99297.66;;;12.75;60.72
70248;BME280;57641;51.416;5.506;2024-03-29T04:15:00;99310.63;;;12.91;60.26
70248;BME280;57641;51.416;5.506;2024-03-29T04:17:25;99327.28;;;12.86;60.44
70248;BME280;57641;51.416;5.506;2024-03-29T04:19:51;99312.06;;;12.87;60.47
70248;BME280;57641;51.416;5.506;2024-03-29T04:22:16;99300.94;;;12.50;62.88
70248;BME280;57641;51.416;5.506;2024-03-29T04:24:42;99295.19;;;12.60;62.57
70248;BME280;57641;51.416;5.506;2024-03-29T04:27:07;99294.78;;;12.63;62.70
70248;BME280;57641;51.416;5.506;2024-03-29T04:29:33;99290.84;;;12.46;63.13
70248;BME280;57641;51.416;5.506;2024-03-29T04:31:58;99292.13;;;12.83;61.71
70248;BME280;57641;51.416;5.506;2024-03-29T04:34:23;99291.88;;;12.64;62.70
70248;BME280;57641;51.416;5.506;2024-03-29T04:36:49;99305.66;;;12.55;63.34
70248;BME280;57641;51.416;5.506;2024-03-29T04:39:14;99296.03;;;12.67;62.95
70248;BME280;57641;51.416;5.506;2024-03-29T04:41:40;99281.84;;;12.73;62.98
70248;BME280;57641;51.416;5.506;2024-03-29T04:44:05;99287.16;;;12.66;63.27
70248;BME280;57641;51.416;5.506;2024-03-29T04:46:33;99279.53;;;12.50;62.68
70248;BME280;57641;51.416;5.506;2024-03-29T04:48:58;99292.09;;;12.56;63.34
70248;BME280;57641;51.416;5.506;2024-03-29T04:51:24;99286.75;;;12.50;63.20
70248;BME280;57641;51.416;5.506;2024-03-29T04:53:49;99289.22;;;12.58;63.32
70248;BME280;57641;51.416;5.506;2024-03-29T04:56:15;99295.38;;;12.65;62.95
70248;BME280;57641;51.416;5.506;2024-03-29T04:58:40;99297.44;;;12.69;62.55
70248;BME280;57641;51.416;5.506;2024-03-29T05:01:07;99285.31;;;12.60;63.02
70248;BME280;57641;51.416;5.506;2024-03-29T05:03:32;99270.72;;;12.56;63.90
70248;BME280;57641;51.416;5.506;2024-03-29T05:05:57;99273.97;;;12.58;63.72
70248;BME280;57641;51.416;5.506;2024-03-29T05:08:23;99273.16;;;12.64;63.69
70248;BME280;57641;51.416;5.506;2024-03-29T05:10:49;99276.47;;;12.60;63.64
70248;BME280;57641;51.416;5.506;2024-03-29T05:13:16;99268.47;;;12.66;63.31
70248;BME280;57641;51.416;5.506;2024-03-29T05:15:42;99274.41;;;12.75;62.94
70248;BME280;57641;51.416;5.506;2024-03-29T05:18:07;99281.00;;;12.73;63.46
70248;BME280;57641;51.416;5.506;2024-03-29T05:20:33;99270.50;;;12.58;63.66
70248;BME280;57641;51.416;5.506;2024-03-29T05:22:58;99260.84;;;12.63;63.88
70248;BME280;57641;51.416;5.506;2024-03-29T05:25:24;99262.09;;;12.67;63.79
70248;BME280;57641;51.416;5.506;2024-03-29T05:27:50;99270.31;;;12.73;64.05
70248;BME280;57641;51.416;5.506;2024-03-29T05:30:15;99270.31;;;12.73;63.65
70248;BME280;57641;51.416;5.506;2024-03-29T05:32:41;99257.78;;;12.73;63.71
70248;BME280;57641;51.416;5.506;2024-03-29T05:35:07;99257.34;;;12.69;64.14
70248;BME280;57641;51.416;5.506;2024-03-29T05:37:35;99251.59;;;12.73;63.64
70248;BME280;57641;51.416;5.506;2024-03-29T05:40:00;99253.44;;;12.65;63.93
70248;BME280;57641;51.416;5.506;2024-03-29T05:42:31;99265.34;;;12.69;64.11
70248;BME280;57641;51.416;5.506;2024-03-29T05:44:57;99270.50;;;12.71;64.12
70248;BME280;57641;51.416;5.506;2024-03-29T05:47:23;99283.25;;;12.69;63.91
70248;BME280;57641;51.416;5.506;2024-03-29T05:49:49;99274.63;;;12.74;63.50
70248;BME280;57641;51.416;5.506;2024-03-29T05:52:15;99284.91;;;12.70;63.97
70248;BME280;57641;51.416;5.506;2024-03-29T05:54:45;99288.00;;;12.74;63.65
70248;BME280;57641;51.416;5.506;2024-03-29T05:57:11;99297.25;;;12.71;64.36
70248;BME280;57641;51.416;5.506;2024-03-29T05:59:37;99293.53;;;12.65;64.07
70248;BME280;57641;51.416;5.506;2024-03-29T06:02:03;99289.66;;;12.68;64.21
70248;BME280;57641;51.416;5.506;2024-03-29T06:04:29;99292.53;;;12.73;64.28
70248;BME280;57641;51.416;5.506;2024-03-29T06:07:00;99307.94;;;12.71;64.13
70248;BME280;57641;51.416;5.506;2024-03-29T06:09:26;99317.81;;;12.70;64.20
70248;BME280;57641;51.416;5.506;2024-03-29T06:11:56;99313.09;;;12.73;64.24
70248;BME280;57641;51.416;5.506;2024-03-29T06:14:23;99315.75;;;12.59;64.50
70248;BME280;57641;51.416;5.506;2024-03-29T06:17:07;99306.91;;;12.59;64.37
70248;BME280;57641;51.416;5.506;2024-03-29T06:19:51;99305.28;;;12.58;64.88
70248;BME280;57641;51.416;5.506;2024-03-29T06:22:20;99300.53;;;12.60;64.26
70248;BME280;57641;51.416;5.506;2024-03-29T06:24:46;99291.28;;;12.69;64.77
70248;BME280;57641;51.416;5.506;2024-03-29T06:27:13;99297.06;;;12.73;64.66
70248;BME280;57641;51.416;5.506;2024-03-29T06:29:43;99289.44;;;12.76;64.49
70248;BME280;57641;51.416;5.506;2024-03-29T06:32:08;99300.31;;;12.75;63.97
70248;BME280;57641;51.416;5.506;2024-03-29T06:34:34;99306.50;;;12.82;64.44
70248;BME280;57641;51.416;5.506;2024-03-29T06:36:59;99308.56;;;12.80;64.25
70248;BME280;57641;51.416;5.506;2024-03-29T06:39:24;99311.84;;;12.82;64.14
70248;BME280;57641;51.416;5.506;2024-03-29T06:41:51;99305.91;;;12.86;64.34
70248;BME280;57641;51.416;5.506;2024-03-29T06:44:17;99311.03;;;12.88;64.17
70248;BME280;57641;51.416;5.506;2024-03-29T06:46:42;99300.34;;;12.88;63.81
70248;BME280;57641;51.416;5.506;2024-03-29T06:49:08;99286.34;;;12.86;63.94
70248;BME280;57641;51.416;5.506;2024-03-29T06:51:33;99279.78;;;12.95;64.40
70248;BME280;57641;51.416;5.506;2024-03-29T06:53:59;99290.47;;;12.95;64.38
70248;BME280;57641;51.416;5.506;2024-03-29T06:56:24;99291.31;;;12.95;64.48
70248;BME280;57641;51.416;5.506;2024-03-29T06:58:49;99301.38;;;12.87;64.09
70248;BME280;57641;51.416;5.506;2024-03-29T07:01:15;99291.06;;;12.90;64.60
70248;BME280;57641;51.416;5.506;2024-03-29T07:03:41;99286.16;;;12.94;64.52
70248;BME280;57641;51.416;5.506;2024-03-29T07:06:06;99284.28;;;12.81;64.51
70248;BME280;57641;51.416;5.506;2024-03-29T07:08:32;99288.19;;;12.92;64.57
70248;BME280;57641;51.416;5.506;2024-03-29T07:11:01;99303.63;;;12.96;64.81
70248;BME280;57641;51.416;5.506;2024-03-29T07:13:30;99297.25;;;13.04;65.44
70248;BME280;57641;51.416;5.506;2024-03-29T07:15:59;99309.38;;;13.06;64.36
70248;BME280;57641;51.416;5.506;2024-03-29T07:18:25;99310.84;;;13.09;64.95
70248;BME280;57641;51.416;5.506;2024-03-29T07:20:50;99310.63;;;13.10;64.78
70248;BME280;57641;51.416;5.506;2024-03-29T07:23:16;99311.91;;;13.15;64.52
70248;BME280;57641;51.416;5.506;2024-03-29T07:25:44;99319.09;;;13.21;64.42
70248;BME280;57641;51.416;5.506;2024-03-29T07:28:11;99334.34;;;13.27;64.39
70248;BME280;57641;51.416;5.506;2024-03-29T07:30:41;99333.72;;;13.25;64.54
70248;BME280;57641;51.416;5.506;2024-03-29T07:33:07;99337.81;;;13.40;65.20
70248;BME280;57641;51.416;5.506;2024-03-29T07:35:34;99334.34;;;13.27;63.74
70248;BME280;57641;51.416;5.506;2024-03-29T07:37:59;99323.59;;;13.53;64.34
70248;BME280;57641;51.416;5.506;2024-03-29T07:40:25;99323.78;;;13.51;63.81
70248;BME280;57641;51.416;5.506;2024-03-29T07:42:50;99323.53;;;13.60;63.72
70248;BME280;57641;51.416;5.506;2024-03-29T07:45:16;99337.16;;;13.58;63.24
70248;BME280;57641;51.416;5.506;2024-03-29T07:47:41;99337.56;;;13.68;64.00
70248;BME280;57641;51.416;5.506;2024-03-29T07:50:07;99334.03;;;13.74;64.30
70248;BME280;57641;51.416;5.506;2024-03-29T07:52:35;99326.41;;;13.71;64.04
70248;BME280;57641;51.416;5.506;2024-03-29T07:55:00;99315.50;;;13.73;63.67
70248;BME280;57641;51.416;5.506;2024-03-29T07:57:26;99318.75;;;13.75;63.46
70248;BME280;57641;51.416;5.506;2024-03-29T07:59:52;99321.94;;;13.45;63.73
70248;BME280;57641;51.416;5.506;2024-03-29T08:02:17;99301.25;;;13.79;63.44
70248;BME280;57641;51.416;5.506;2024-03-29T08:04:42;99308.28;;;13.67;63.68
70248;BME280;57641;51.416;5.506;2024-03-29T08:07:10;99315.94;;;13.50;63.16
70248;BME280;57641;51.416;5.506;2024-03-29T08:09:37;99317.53;;;13.71;63.77
70248;BME280;57641;51.416;5.506;2024-03-29T08:12:05;99321.03;;;13.78;63.73
70248;BME280;57641;51.416;5.506;2024-03-29T08:14:31;99321.66;;;13.80;64.17
70248;BME280;57641;51.416;5.506;2024-03-29T08:16:56;99320.84;;;13.73;63.25
70248;BME280;57641;51.416;5.506;2024-03-29T08:19:27;99310.97;;;13.60;64.05
70248;BME280;57641;51.416;5.506;2024-03-29T08:21:53;99310.53;;;13.76;64.29
70248;BME280;57641;51.416;5.506;2024-03-29T08:24:18;99314.59;;;13.85;64.23
70248;BME280;57641;51.416;5.506;2024-03-29T08:26:43;99325.31;;;13.92;64.26
70248;BME280;57641;51.416;5.506;2024-03-29T08:29:09;99345.41;;;13.04;66.24
70248;BME280;57641;51.416;5.506;2024-03-29T08:31:34;99343.94;;;13.54;64.39
70248;BME280;57641;51.416;5.506;2024-03-29T08:34:02;99342.09;;;13.68;64.15
70248;BME280;57641;51.416;5.506;2024-03-29T08:36:28;99336.25;;;13.84;64.22
70248;BME280;57641;51.416;5.506;2024-03-29T08:38:53;99336.25;;;13.90;63.66
70248;BME280;57641;51.416;5.506;2024-03-29T08:41:19;99335.91;;;13.61;63.21
70248;BME280;57641;51.416;5.506;2024-03-29T08:43:44;99332.00;;;13.63;64.69
70248;BME280;57641;51.416;5.506;2024-03-29T08:46:10;99325.13;;;13.87;64.22
70248;BME280;57641;51.416;5.506;2024-03-29T08:48:35;99341.66;;;13.71;63.98
70248;BME280;57641;51.416;5.506;2024-03-29T08:51:03;99349.72;;;13.58;65.18
70248;BME280;57641;51.416;5.506;2024-03-29T08:53:28;99359.38;;;13.65;64.73
70248;BME280;57641;51.416;5.506;2024-03-29T08:55:54;99346.69;;;13.21;65.82
70248;BME280;57641;51.416;5.506;2024-03-29T08:58:20;99349.34;;;13.41;65.53
70248;BME280;57641;51.416;5.506;2024-03-29T09:00:53;99362.91;;;13.33;65.36
70248;BME280;57641;51.416;5.506;2024-03-29T09:03:19;99360.38;;;13.84;63.83
70248;BME280;57641;51.416;5.506;2024-03-29T09:05:44;99358.56;;;13.65;64.73
70248;BME280;57641;51.416;5.506;2024-03-29T09:08:10;99348.03;;;13.70;65.10
70248;BME280;57641;51.416;5.506;2024-03-29T09:10:35;99354.88;;;13.39;65.56
70248;BME280;57641;51.416;5.506;2024-03-29T09:13:01;99361.41;;;13.76;64.16
70248;BME280;57641;51.416;5.506;2024-03-29T09:15:26;99366.00;;;13.63;64.26
70248;BME280;57641;51.416;5.506;2024-03-29T09:17:51;99363.72;;;13.66;64.76
70248;BME280;57641;51.416;5.506;2024-03-29T09:20:20;99364.38;;;13.29;65.77
70248;BME280;57641;51.416;5.506;2024-03-29T09:22:46;99364.72;;;13.72;64.52
70248;BME280;57641;51.416;5.506;2024-03-29T09:25:11;99367.31;;;14.11;64.39
70248;BME280;57641;51.416;5.506;2024-03-29T09:27:40;99370.00;;;14.05;63.54
70248;BME280;57641;51.416;5.506;2024-03-29T09:30:10;99373.63;;;14.23;62.88
70248;BME280;57641;51.416;5.506;2024-03-29T09:32:36;99371.69;;;13.92;63.82
70248;BME280;57641;51.416;5.506;2024-03-29T09:35:01;99391.91;;;13.82;63.76
70248;BME280;57641;51.416;5.506;2024-03-29T09:37:27;99394.13;;;14.05;62.87
70248;BME280;57641;51.416;5.506;2024-03-29T09:39:52;99407.97;;;13.82;64.16
70248;BME280;57641;51.416;5.506;2024-03-29T09:42:22;99410.19;;;14.05;63.75
70248;BME280;57641;51.416;5.506;2024-03-29T09:44:50;99409.47;;;14.35;62.89
70248;BME280;57641;51.416;5.506;2024-03-29T09:47:17;99407.44;;;14.75;62.72
70248;BME280;57641;51.416;5.506;2024-03-29T09:49:44;99414.47;;;14.12;61.86
70248;BME280;57641;51.416;5.506;2024-03-29T09:52:11;99413.63;;;14.31;61.47
70248;BME280;57641;51.416;5.506;2024-03-29T09:54:38;99414.06;;;14.22;62.44
70248;BME280;57641;51.416;5.506;2024-03-29T09:57:04;99404.72;;;13.60;63.23
70248;BME280;57641;51.416;5.506;2024-03-29T09:59:30;99422.75;;;14.11;62.13
70248;BME280;57641;51.416;5.506;2024-03-29T10:01:56;99429.41;;;13.95;62.73
70248;BME280;57641;51.416;5.506;2024-03-29T10:04:24;99415.66;;;13.59;64.00
70248;BME280;57641;51.416;5.506;2024-03-29T10:06:51;99414.47;;;14.19;62.17
70248;BME280;57641;51.416;5.506;2024-03-29T10:09:21;99419.72;;;13.81;62.21
70248;BME280;57641;51.416;5.506;2024-03-29T10:11:48;99401.41;;;13.78;62.22
70248;BME280;57641;51.416;5.506;2024-03-29T10:14:13;99403.28;;;13.58;61.96
70248;BME280;57641;51.416;5.506;2024-03-29T10:16:39;99398.78;;;14.22;61.01
70248;BME280;57641;51.416;5.506;2024-03-29T10:19:07;99389.50;;;14.25;60.60
70248;BME280;57641;51.416;5.506;2024-03-29T10:21:33;99399.16;;;14.39;60.19
70248;BME280;57641;51.416;5.506;2024-03-29T10:24:09;99398.31;;;14.45;59.71
70248;BME280;57641;51.416;5.506;2024-03-29T10:26:37;99394.28;;;14.67;58.55
70248;BME280;57641;51.416;5.506;2024-03-29T10:29:02;99402.19;;;14.56;59.49
70248;BME280;57641;51.416;5.506;2024-03-29T10:31:34;99406.66;;;14.68;58.92
70248;BME280;57641;51.416;5.506;2024-03-29T10:34:02;99405.81;;;15.06;58.16
70248;BME280;57641;51.416;5.506;2024-03-29T10:36:29;99405.50;;;15.20;58.36
70248;BME280;57641;51.416;5.506;2024-03-29T10:38:54;99398.84;;;15.54;57.93
70248;BME280;57641;51.416;5.506;2024-03-29T10:41:21;99390.25;;;15.14;57.60
70248;BME280;57641;51.416;5.506;2024-03-29T10:43:49;99405.47;;;15.52;55.99
70248;BME280;57641;51.416;5.506;2024-03-29T10:46:16;99415.59;;;15.93;55.90
70248;BME280;57641;51.416;5.506;2024-03-29T10:48:44;99408.97;;;15.52;55.70
70248;BME280;57641;51.416;5.506;2024-03-29T10:51:11;99425.28;;;14.95;56.59
70248;BME280;57641;51.416;5.506;2024-03-29T10:53:38;99445.94;;;15.26;55.35
70248;BME280;57641;51.416;5.506;2024-03-29T10:56:07;99451.28;;;15.01;56.70
70248;BME280;57641;51.416;5.506;2024-03-29T10:58:35;99464.81;;;15.44;55.84
70248;BME280;57641;51.416;5.506;2024-03-29T11:01:01;99447.78;;;15.56;55.29
70248;BME280;57641;51.416;5.506;2024-03-29T11:03:32;99458.81;;;15.17;55.86
70248;BME280;57641;51.416;5.506;2024-03-29T11:06:03;99456.22;;;15.29;54.13
70248;BME280;57641;51.416;5.506;2024-03-29T11:08:32;99445.75;;;15.52;55.21
70248;BME280;57641;51.416;5.506;2024-03-29T11:11:00;99432.03;;;15.85;54.17
70248;BME280;57641;51.416;5.506;2024-03-29T11:13:53;99413.59;;;16.25;53.62
70248;BME280;57641;51.416;5.506;2024-03-29T11:16:19;99395.06;;;15.98;52.46
70248;BME280;57641;51.416;5.506;2024-03-29T11:18:46;99402.84;;;16.25;52.15
70248;BME280;57641;51.416;5.506;2024-03-29T11:21:13;99415.56;;;15.50;54.94
70248;BME280;57641;51.416;5.506;2024-03-29T11:23:48;99412.63;;;16.01;51.93
70248;BME280;57641;51.416;5.506;2024-03-29T11:26:14;99421.09;;;16.23;52.16
70248;BME280;57641;51.416;5.506;2024-03-29T11:28:40;99410.81;;;16.13;51.62
70248;BME280;57641;51.416;5.506;2024-03-29T11:31:09;99427.47;;;15.85;51.62
70248;BME280;57641;51.416;5.506;2024-03-29T11:33:43;99441.91;;;15.66;51.46
70248;BME280;57641;51.416;5.506;2024-03-29T11:36:13;99428.31;;;16.04;50.72
70248;BME280;57641;51.416;5.506;2024-03-29T11:38:41;99446.03;;;15.69;51.35
70248;BME280;57641;51.416;5.506;2024-03-29T11:41:20;99442.53;;;15.37;51.87
70248;BME280;57641;51.416;5.506;2024-03-29T11:43:56;99433.13;;;15.77;50.56
70248;BME280;57641;51.416;5.506;2024-03-29T11:46:23;99437.41;;;16.03;50.86
70248;BME280;57641;51.416;5.506;2024-03-29T11:48:49;99448.09;;;15.91;49.92
70248;BME280;57641;51.416;5.506;2024-03-29T11:51:18;99447.16;;;16.22;49.35
70248;BME280;57641;51.416;5.506;2024-03-29T11:53:47;99450.22;;;16.62;48.94
70248;BME280;57641;51.416;5.506;2024-03-29T11:56:12;99449.53;;;16.67;49.71
70248;BME280;57641;51.416;5.506;2024-03-29T11:58:39;99454.03;;;16.55;49.41
70248;BME280;57641;51.416;5.506;2024-03-29T12:01:06;99442.22;;;16.37;48.09
70248;BME280;57641;51.416;5.506;2024-03-29T12:03:32;99447.88;;;16.47;47.74
70248;BME280;57641;51.416;5.506;2024-03-29T12:06:00;99455.34;;;16.45;48.59
70248;BME280;57641;51.416;5.506;2024-03-29T12:08:40;99460.13;;;16.80;48.42
70248;BME280;57641;51.416;5.506;2024-03-29T12:11:08;99464.25;;;16.28;49.03
70248;BME280;57641;51.416;5.506;2024-03-29T12:13:33;99458.53;;;16.91;48.30
70248;BME280;57641;51.416;5.506;2024-03-29T12:16:00;99460.38;;;16.60;48.33
70248;BME280;57641;51.416;5.506;2024-03-29T12:18:26;99460.22;;;16.73;48.61
70248;BME280;57641;51.416;5.506;2024-03-29T12:20:53;99455.06;;;16.72;48.53
70248;BME280;57641;51.416;5.506;2024-03-29T12:23:20;99465.25;;;17.00;48.01
70248;BME280;57641;51.416;5.506;2024-03-29T12:25:48;99454.25;;;17.43;47.11
70248;BME280;57641;51.416;5.506;2024-03-29T12:28:14;99464.56;;;17.04;47.63
70248;BME280;57641;51.416;5.506;2024-03-29T12:30:46;99464.50;;;17.22;47.28
70248;BME280;57641;51.416;5.506;2024-03-29T12:33:14;99450.94;;;17.70;47.65
70248;BME280;57641;51.416;5.506;2024-03-29T12:35:45;99457.00;;;17.78;46.12
70248;BME280;57641;51.416;5.506;2024-03-29T12:38:14;99466.94;;;17.24;46.54
70248;BME280;57641;51.416;5.506;2024-03-29T12:40:41;99455.81;;;17.20;47.04
70248;BME280;57641;51.416;5.506;2024-03-29T12:43:09;99450.38;;;17.39;46.74
70248;BME280;57641;51.416;5.506;2024-03-29T12:45:36;99460.28;;;17.68;46.84
70248;BME280;57641;51.416;5.506;2024-03-29T12:48:02;99463.13;;;17.31;46.01
70248;BME280;57641;51.416;5.506;2024-03-29T12:50:28;99467.28;;;17.16;46.56
70248;BME280;57641;51.416;5.506;2024-03-29T12:52:56;99461.00;;;17.63;46.74
70248;BME280;57641;51.416;5.506;2024-03-29T12:55:22;99447.97;;;17.72;46.76
70248;BME280;57641;51.416;5.506;2024-03-29T12:57:48;99457.94;;;17.60;46.84